Time,TemperatureF,DewpointF,PressureIn,WindDirection,WindDirectionDegrees,WindSpeedMPH,WindSpeedGustMPH,Humidity,HourlyPrecipIn,Conditions,Clouds,dailyrainin,SolarRadiationWatts/m^2,SoftwareType,DateUTC
2013-06-20 00:01:00,63.2,62.0,30.12,NNW,346,0.0,0.0,96,0.00,,,0.00,0,HR-IXPWINDi_r2_v1.2.,2013-06-20 04:01:00,
2013-06-20 00:06:00,63.2,61.7,30.12,NNW,346,0.0,0.0,95,0.00,,,0.00,0,HR-IXPWINDi_r2_v1.2.,2013-06-20 04:06:00,
2013-06-20 00:11:00,63.3,61.8,30.12,NNW,346,0.0,0.0,95,0.00,,,0.00,0,HR-IXPWINDi_r2_v1.2.,2013-06-20 04:11:00,
2013-06-20 00:16:00,63.1,61.6,30.12,North,351,0.0,4.0,95,0.00,,,0.00,0,HR-IXPWINDi_r2_v1.2.,2013-06-20 04:16:00,
2013-06-20 00:21:00,63.0,61.5,30.12,North,351,0.0,4.0,95,0.00,,,0.00,0,HR-IXPWINDi_r2_v1.2.,2013-06-20 04:21:00,
2013-06-20 00:26:00,62.9,61.4,30.12,North,5,1.0,2.0,95,0.00,,,0.00,0,HR-IXPWINDi_r2_v1.2.,2013-06-20 04:26:00,
2013-06-20 00:31:00,62.9,61.4,30.12,SE,128,4.0,5.0,95,0.00,,,0.00,0,HR-IXPWINDi_r2_v1.2.,2013-06-20 04:31:00,
2013-06-20 00:37:00,62.7,61.2,30.11,SE,127,0.0,5.0,95,0.00,,,0.00,0,HR-IXPWINDi_r2_v1.2.,2013-06-20 04:37:00,
2013-06-20 00:42:00,62.6,61.1,30.11,ESE,105,0.0,5.0,95,0.00,,,0.00,0,HR-IXPWINDi_r2_v1.2.,2013-06-20 04:42:00,
2013-06-20 00:47:00,62.5,61.0,30.11,ESE,105,0.0,5.0,95,0.00,,,0.00,0,HR-IXPWINDi_r2_v1.2.,2013-06-20 04:47:00,
2013-06-20 00:52:00,62.4,60.9,30.11,ESE,117,0.0,4.0,95,0.00,,,0.00,0,HR-IXPWINDi_r2_v1.2.,2013-06-20 04:52:00,
2013-06-20 00:57:00,62.3,60.8,30.11,ESE,117,0.0,4.0,95,0.00,,,0.00,0,HR-IXPWINDi_r2_v1.2.,2013-06-20 04:57:00,
2013-06-20 01:02:00,62.3,60.8,30.11,ESE,119,1.0,5.0,95,0.00,,,0.00,0,HR-IXPWINDi_r2_v1.2.,2013-06-20 05:02:00,
2013-06-20 01:08:00,62.1,60.6,30.11,ESE,115,1.0,5.0,95,0.00,,,0.00,0,HR-IXPWINDi_r2_v1.2.,2013-06-20 05:08:00,
2013-06-20 01:13:00,62.0,60.5,30.11,ESE,115,2.0,4.0,95,0.00,,,0.00,0,HR-IXPWINDi_r2_v1.2.,2013-06-20 05:13:00,
2013-06-20 01:18:00,61.8,60.3,30.11,ESE,115,4.0,5.0,95,0.00,,,0.00,0,HR-IXPWINDi_r2_v1.2.,2013-06-20 05:18:00,
2013-06-20 01:24:00,61.6,60.4,30.11,ESE,115,5.0,5.0,96,0.00,,,0.00,0,HR-IXPWINDi_r2_v1.2.,2013-06-20 05:24:00,
2013-06-20 01:29:00,61.5,60.3,30.11,ESE,115,4.0,5.0,96,0.00,,,0.00,0,HR-IXPWINDi_r2_v1.2.,2013-06-20 05:29:00,
2013-06-20 01:34:00,61.5,60.3,30.11,ESE,115,2.0,4.0,96,0.00,,,0.00,0,HR-IXPWINDi_r2_v1.2.,2013-06-20 05:34:00,
2013-06-20 01:39:00,61.4,60.2,30.11,ESE,117,0.0,6.0,96,0.00,,,0.00,0,HR-IXPWINDi_r2_v1.2.,2013-06-20 05:39:00,
2013-06-20 01:44:00,61.3,60.1,30.11,ESE,117,2.0,6.0,96,0.00,,,0.00,0,HR-IXPWINDi_r2_v1.2.,2013-06-20 05:44:00,
2013-06-20 01:50:00,61.3,60.1,30.11,ESE,118,2.0,5.0,96,0.00,,,0.00,0,HR-IXPWINDi_r2_v1.2.,2013-06-20 05:50:00,
2013-06-20 01:55:00,61.1,59.9,30.11,ESE,118,0.0,5.0,96,0.00,,,0.00,0,HR-IXPWINDi_r2_v1.2.,2013-06-20 05:55:00,
2013-06-20 02:00:00,61.0,59.8,30.11,ESE,118,2.0,5.0,96,0.00,,,0.00,0,HR-IXPWINDi_r2_v1.2.,2013-06-20 06:00:00,
2013-06-20 02:05:00,60.9,59.7,30.11,ESE,118,0.0,5.0,96,0.00,,,0.00,0,HR-IXPWINDi_r2_v1.2.,2013-06-20 06:05:00,
2013-06-20 02:10:00,60.8,59.6,30.10,ESE,118,0.0,5.0,96,0.00,,,0.00,0,HR-IXPWINDi_r2_v1.2.,2013-06-20 06:10:00,
2013-06-20 02:15:00,60.6,59.4,30.10,ESE,118,0.0,4.0,96,0.00,,,0.00,0,HR-IXPWINDi_r2_v1.2.,2013-06-20 06:15:00,
2013-06-20 02:21:00,60.6,59.4,30.11,ENE,60,0.0,4.0,96,0.00,,,0.00,0,HR-IXPWINDi_r2_v1.2.,2013-06-20 06:21:00,
2013-06-20 02:26:00,60.6,59.4,30.11,North,5,0.0,4.0,96,0.00,,,0.00,0,HR-IXPWINDi_r2_v1.2.,2013-06-20 06:26:00,
2013-06-20 02:31:00,60.5,59.3,30.11,North,5,0.0,3.0,96,0.00,,,0.00,0,HR-IXPWINDi_r2_v1.2.,2013-06-20 06:31:00,
2013-06-20 02:36:00,60.3,59.1,30.11,North,5,0.0,0.0,96,0.00,,,0.00,0,HR-IXPWINDi_r2_v1.2.,2013-06-20 06:36:00,
2013-06-20 02:41:00,60.0,58.8,30.11,NNE,12,0.0,1.0,96,0.00,,,0.00,0,HR-IXPWINDi_r2_v1.2.,2013-06-20 06:41:00,
2013-06-20 02:46:00,59.8,58.6,30.11,NNE,12,0.0,1.0,96,0.00,,,0.00,0,HR-IXPWINDi_r2_v1.2.,2013-06-20 06:46:00,
2013-06-20 02:52:00,59.6,58.4,30.11,NE,44,0.0,3.0,96,0.00,,,0.00,0,HR-IXPWINDi_r2_v1.2.,2013-06-20 06:52:00,
2013-06-20 02:57:00,59.6,58.4,30.11,NE,44,0.0,3.0,96,0.00,,,0.00,0,HR-IXPWINDi_r2_v1.2.,2013-06-20 06:57:00,
2013-06-20 03:02:00,59.4,58.2,30.12,NE,44,0.0,1.0,96,0.00,,,0.00,0,HR-IXPWINDi_r2_v1.2.,2013-06-20 07:02:00,
2013-06-20 03:07:00,59.3,58.1,30.12,NE,44,0.0,2.0,96,0.00,,,0.00,0,HR-IXPWINDi_r2_v1.2.,2013-06-20 07:07:00,
2013-06-20 03:13:00,59.2,58.0,30.12,NE,45,2.0,2.0,96,0.00,,,0.00,0,HR-IXPWINDi_r2_v1.2.,2013-06-20 07:13:00,
2013-06-20 03:18:00,59.1,57.9,30.12,NE,45,0.0,2.0,96,0.00,,,0.00,0,HR-IXPWINDi_r2_v1.2.,2013-06-20 07:18:00,
2013-06-20 03:23:00,59.0,57.8,30.12,East,92,4.0,5.0,96,0.00,,,0.00,0,HR-IXPWINDi_r2_v1.2.,2013-06-20 07:23:00,
2013-06-20 03:28:00,58.9,57.7,30.12,East,94,0.0,5.0,96,0.00,,,0.00,0,HR-IXPWINDi_r2_v1.2.,2013-06-20 07:28:00,
2013-06-20 03:33:00,58.7,57.5,30.12,East,94,0.0,5.0,96,0.00,,,0.00,0,HR-IXPWINDi_r2_v1.2.,2013-06-20 07:33:00,
2013-06-20 03:39:00,58.6,57.4,30.12,East,94,0.0,4.0,96,0.00,,,0.00,0,HR-IXPWINDi_r2_v1.2.,2013-06-20 07:39:00,
2013-06-20 03:44:00,58.6,57.4,30.12,East,94,2.0,4.0,96,0.00,,,0.00,0,HR-IXPWINDi_r2_v1.2.,2013-06-20 07:44:00,
2013-06-20 03:49:00,58.5,57.3,30.12,ESE,106,4.0,5.0,96,0.00,,,0.00,0,HR-IXPWINDi_r2_v1.2.,2013-06-20 07:49:00,
2013-06-20 03:54:00,58.6,57.4,30.12,ESE,118,1.0,5.0,96,0.00,,,0.00,0,HR-IXPWINDi_r2_v1.2.,2013-06-20 07:54:00,
2013-06-20 03:59:00,58.6,57.4,30.12,ESE,118,2.0,5.0,96,0.00,,,0.00,0,HR-IXPWINDi_r2_v1.2.,2013-06-20 07:59:00,
2013-06-20 04:05:00,58.4,57.2,30.12,ESE,118,0.0,4.0,96,0.00,,,0.00,0,HR-IXPWINDi_r2_v1.2.,2013-06-20 08:05:00,
2013-06-20 04:10:00,58.3,57.1,30.12,ESE,118,0.0,2.0,96,0.00,,,0.00,0,HR-IXPWINDi_r2_v1.2.,2013-06-20 08:10:00,
2013-06-20 04:15:00,58.3,57.4,30.12,ESE,118,2.0,2.0,97,0.00,,,0.00,0,HR-IXPWINDi_r2_v1.2.,2013-06-20 08:15:00,
2013-06-20 04:20:00,58.2,57.3,30.13,ESE,118,0.0,2.0,97,0.00,,,0.00,0,HR-IXPWINDi_r2_v1.2.,2013-06-20 08:20:00,
2013-06-20 04:25:00,58.1,57.2,30.13,ESE,118,0.0,2.0,97,0.00,,,0.00,0,HR-IXPWINDi_r2_v1.2.,2013-06-20 08:25:00,
2013-06-20 04:30:00,58.1,57.2,30.14,ESE,118,0.0,1.0,97,0.00,,,0.00,0,HR-IXPWINDi_r2_v1.2.,2013-06-20 08:30:00,
2013-06-20 04:36:00,58.2,57.3,30.14,ESE,118,0.0,1.0,97,0.00,,,0.00,0,HR-IXPWINDi_r2_v1.2.,2013-06-20 08:36:00,
2013-06-20 04:41:00,58.0,56.8,30.14,ESE,118,0.0,0.0,96,0.00,,,0.00,0,HR-IXPWINDi_r2_v1.2.,2013-06-20 08:41:00,
2013-06-20 04:46:00,57.9,56.7,30.14,ESE,118,0.0,0.0,96,0.00,,,0.00,0,HR-IXPWINDi_r2_v1.2.,2013-06-20 08:46:00,
2013-06-20 04:51:00,57.7,56.5,30.14,ESE,118,0.0,1.0,96,0.00,,,0.00,0,HR-IXPWINDi_r2_v1.2.,2013-06-20 08:51:00,
2013-06-20 04:56:00,57.6,56.7,30.14,ESE,118,0.0,1.0,97,0.00,,,0.00,0,HR-IXPWINDi_r2_v1.2.,2013-06-20 08:56:00,
2013-06-20 05:02:00,57.4,56.5,30.14,ESE,118,0.0,4.0,97,0.00,,,0.00,0,HR-IXPWINDi_r2_v1.2.,2013-06-20 09:02:00,
2013-06-20 05:07:00,57.2,56.3,30.14,ESE,118,0.0,4.0,97,0.00,,,0.00,0,HR-IXPWINDi_r2_v1.2.,2013-06-20 09:07:00,
2013-06-20 05:12:00,57.3,56.4,30.14,ESE,118,0.0,1.0,97,0.00,,,0.00,0,HR-IXPWINDi_r2_v1.2.,2013-06-20 09:12:00,
2013-06-20 05:17:00,57.0,56.1,30.15,ESE,118,0.0,1.0,97,0.00,,,0.00,0,HR-IXPWINDi_r2_v1.2.,2013-06-20 09:17:00,
2013-06-20 05:22:00,57.0,56.1,30.15,ESE,118,0.0,2.0,97,0.00,,,0.00,0,HR-IXPWINDi_r2_v1.2.,2013-06-20 09:22:00,
2013-06-20 05:28:00,57.2,56.3,30.15,ESE,118,0.0,2.0,97,0.00,,,0.00,0,HR-IXPWINDi_r2_v1.2.,2013-06-20 09:28:00,
2013-06-20 05:33:00,57.3,56.4,30.15,ESE,118,0.0,2.0,97,0.00,,,0.00,0,HR-IXPWINDi_r2_v1.2.,2013-06-20 09:33:00,
2013-06-20 05:38:00,57.0,56.1,30.15,ESE,118,2.0,4.0,97,0.00,,,0.00,0,HR-IXPWINDi_r2_v1.2.,2013-06-20 09:38:00,
2013-06-20 05:43:00,56.9,56.0,30.15,ESE,118,0.0,4.0,97,0.00,,,0.00,0,HR-IXPWINDi_r2_v1.2.,2013-06-20 09:43:00,
2013-06-20 05:48:00,56.9,56.0,30.15,ESE,118,0.0,4.0,97,0.00,,,0.00,0,HR-IXPWINDi_r2_v1.2.,2013-06-20 09:48:00,
2013-06-20 05:54:00,57.0,56.1,30.16,ESE,118,0.0,1.0,97,0.00,,,0.00,0,HR-IXPWINDi_r2_v1.2.,2013-06-20 09:54:00,
2013-06-20 05:59:00,57.1,56.2,30.16,ESE,118,1.0,4.0,97,0.00,,,0.00,0,HR-IXPWINDi_r2_v1.2.,2013-06-20 09:59:00,
2013-06-20 06:04:00,57.1,56.2,30.16,ESE,111,0.0,5.0,97,0.00,,,0.00,0,HR-IXPWINDi_r2_v1.2.,2013-06-20 10:04:00,
2013-06-20 06:09:00,56.9,56.0,30.16,ESE,111,0.0,5.0,97,0.00,,,0.00,0,HR-IXPWINDi_r2_v1.2.,2013-06-20 10:09:00,
2013-06-20 06:14:00,56.9,56.0,30.16,ESE,111,0.0,0.0,97,0.00,,,0.00,0,HR-IXPWINDi_r2_v1.2.,2013-06-20 10:14:00,
2013-06-20 06:19:00,56.8,55.9,30.16,ESE,111,0.0,0.0,97,0.00,,,0.00,7,HR-IXPWINDi_r2_v1.2.,2013-06-20 10:19:00,
2013-06-20 06:25:00,56.9,56.0,30.17,East,84,3.0,4.0,97,0.00,,,0.00,11,HR-IXPWINDi_r2_v1.2.,2013-06-20 10:25:00,
2013-06-20 06:30:00,57.1,56.2,30.17,East,84,0.0,4.0,97,0.00,,,0.00,16,HR-IXPWINDi_r2_v1.2.,2013-06-20 10:30:00,
2013-06-20 06:35:00,57.1,56.2,30.18,East,84,0.0,3.0,97,0.00,,,0.00,26,HR-IXPWINDi_r2_v1.2.,2013-06-20 10:35:00,
2013-06-20 06:40:00,57.2,56.3,30.17,East,84,0.0,0.0,97,0.00,,,0.00,30,HR-IXPWINDi_r2_v1.2.,2013-06-20 10:40:00,
2013-06-20 06:45:00,57.3,56.4,30.17,East,97,0.0,4.0,97,0.00,,,0.00,35,HR-IXPWINDi_r2_v1.2.,2013-06-20 10:45:00,
2013-06-20 06:50:00,57.3,56.4,30.17,ESE,111,1.0,5.0,97,0.00,,,0.00,39,HR-IXPWINDi_r2_v1.2.,2013-06-20 10:50:00,
2013-06-20 06:55:00,57.4,56.5,30.17,ESE,111,0.0,5.0,97,0.00,,,0.00,44,HR-IXPWINDi_r2_v1.2.,2013-06-20 10:55:00,
2013-06-20 07:00:00,57.7,56.8,30.17,ESE,111,0.0,4.0,97,0.00,,,0.00,49,HR-IXPWINDi_r2_v1.2.,2013-06-20 11:00:00,
2013-06-20 07:06:00,58.1,57.2,30.17,ESE,111,2.0,4.0,97,0.00,,,0.00,51,HR-IXPWINDi_r2_v1.2.,2013-06-20 11:06:00,
2013-06-20 07:11:00,58.3,57.4,30.17,ESE,111,0.0,4.0,97,0.00,,,0.00,53,HR-IXPWINDi_r2_v1.2.,2013-06-20 11:11:00,
2013-06-20 07:16:00,58.5,57.6,30.17,ESE,111,5.0,5.0,97,0.00,,,0.00,111,HR-IXPWINDi_r2_v1.2.,2013-06-20 11:16:00,
2013-06-20 07:21:00,58.6,57.7,30.17,ESE,111,0.0,5.0,97,0.00,,,0.00,104,HR-IXPWINDi_r2_v1.2.,2013-06-20 11:21:00,
2013-06-20 07:27:00,58.9,58.0,30.18,ESE,111,0.0,5.0,97,0.00,,,0.00,139,HR-IXPWINDi_r2_v1.2.,2013-06-20 11:27:00,
2013-06-20 07:32:00,59.1,58.2,30.18,ESE,111,0.0,1.0,97,0.00,,,0.00,153,HR-IXPWINDi_r2_v1.2.,2013-06-20 11:32:00,
2013-06-20 07:37:00,59.5,58.6,30.18,ESE,111,0.0,1.0,97,0.00,,,0.00,172,HR-IXPWINDi_r2_v1.2.,2013-06-20 11:37:00,
2013-06-20 07:42:00,59.9,59.0,30.18,ESE,111,0.0,0.0,97,0.00,,,0.00,165,HR-IXPWINDi_r2_v1.2.,2013-06-20 11:42:00,
2013-06-20 07:47:00,60.3,59.4,30.18,ESE,111,0.0,0.0,97,0.00,,,0.00,195,HR-IXPWINDi_r2_v1.2.,2013-06-20 11:47:00,
2013-06-20 07:52:00,60.7,59.8,30.19,ESE,111,0.0,0.0,97,0.00,,,0.00,213,HR-IXPWINDi_r2_v1.2.,2013-06-20 11:52:00,
2013-06-20 07:58:00,61.0,60.1,30.19,ESE,111,0.0,0.0,97,0.00,,,0.00,239,HR-IXPWINDi_r2_v1.2.,2013-06-20 11:58:00,
2013-06-20 08:03:00,61.8,60.9,30.19,ESE,111,0.0,0.0,97,0.00,,,0.00,204,HR-IXPWINDi_r2_v1.2.,2013-06-20 12:03:00,
2013-06-20 08:08:00,62.1,60.9,30.19,ESE,111,0.0,0.0,96,0.00,,,0.00,272,HR-IXPWINDi_r2_v1.2.,2013-06-20 12:08:00,
2013-06-20 08:13:00,62.2,61.0,30.19,ESE,111,0.0,1.0,96,0.00,,,0.00,295,HR-IXPWINDi_r2_v1.2.,2013-06-20 12:13:00,
2013-06-20 08:19:00,62.5,61.3,30.19,ESE,111,0.0,1.0,96,0.00,,,0.00,330,HR-IXPWINDi_r2_v1.2.,2013-06-20 12:19:00,
2013-06-20 08:24:00,62.8,61.3,30.20,ESE,111,0.0,1.0,95,0.00,,,0.00,350,HR-IXPWINDi_r2_v1.2.,2013-06-20 12:24:00,
2013-06-20 08:29:00,64.3,63.1,30.20,ESE,111,0.0,1.0,96,0.00,,,0.00,406,HR-IXPWINDi_r2_v1.2.,2013-06-20 12:29:00,
2013-06-20 08:34:00,65.0,63.5,30.20,ESE,111,0.0,0.0,95,0.00,,,0.00,410,HR-IXPWINDi_r2_v1.2.,2013-06-20 12:34:00,
2013-06-20 08:39:00,64.9,62.8,30.20,ESE,111,0.0,0.0,93,0.00,,,0.00,392,HR-IXPWINDi_r2_v1.2.,2013-06-20 12:39:00,
2013-06-20 08:45:00,64.9,62.5,30.20,ESE,115,0.0,5.0,92,0.00,,,0.00,380,HR-IXPWINDi_r2_v1.2.,2013-06-20 12:45:00,
2013-06-20 08:50:00,64.7,62.3,30.20,SE,132,4.0,5.0,92,0.00,,,0.00,369,HR-IXPWINDi_r2_v1.2.,2013-06-20 12:50:00,
2013-06-20 08:55:00,64.8,62.4,30.20,SE,139,1.0,5.0,92,0.00,,,0.00,396,HR-IXPWINDi_r2_v1.2.,2013-06-20 12:55:00,
2013-06-20 09:00:00,65.3,63.2,30.20,SE,139,1.0,5.0,93,0.00,,,0.00,394,HR-IXPWINDi_r2_v1.2.,2013-06-20 13:00:00,
2013-06-20 09:06:00,65.5,62.7,30.20,SE,139,1.0,4.0,91,0.00,,,0.00,366,HR-IXPWINDi_r2_v1.2.,2013-06-20 13:06:00,
2013-06-20 09:11:00,66.8,63.7,30.20,SE,139,0.0,4.0,90,0.00,,,0.00,445,HR-IXPWINDi_r2_v1.2.,2013-06-20 13:11:00,
2013-06-20 09:16:00,67.7,64.3,30.20,SE,139,0.0,1.0,89,0.00,,,0.00,390,HR-IXPWINDi_r2_v1.2.,2013-06-20 13:16:00,
2013-06-20 09:21:00,67.3,63.6,30.20,SE,139,0.0,2.0,88,0.00,,,0.00,441,HR-IXPWINDi_r2_v1.2.,2013-06-20 13:21:00,
2013-06-20 09:26:00,67.5,63.8,30.20,SE,139,4.0,4.0,88,0.00,,,0.00,485,HR-IXPWINDi_r2_v1.2.,2013-06-20 13:26:00,
2013-06-20 09:32:00,67.4,63.7,30.20,South,172,4.0,6.0,88,0.00,,,0.00,545,HR-IXPWINDi_r2_v1.2.,2013-06-20 13:32:00,
2013-06-20 09:37:00,68.1,64.3,30.20,SSE,161,1.0,6.0,88,0.00,,,0.00,534,HR-IXPWINDi_r2_v1.2.,2013-06-20 13:37:00,
2013-06-20 09:42:00,68.5,64.4,30.20,SSE,161,0.0,4.0,87,0.00,,,0.00,550,HR-IXPWINDi_r2_v1.2.,2013-06-20 13:42:00,
2013-06-20 09:47:00,69.5,64.7,30.20,SSE,161,1.0,4.0,85,0.00,,,0.00,610,HR-IXPWINDi_r2_v1.2.,2013-06-20 13:47:00,
2013-06-20 09:52:00,69.0,63.9,30.20,SSE,161,0.0,4.0,84,0.00,,,0.00,610,HR-IXPWINDi_r2_v1.2.,2013-06-20 13:52:00,
2013-06-20 09:58:00,69.6,64.8,30.19,SE,144,5.0,6.0,85,0.00,,,0.00,628,HR-IXPWINDi_r2_v1.2.,2013-06-20 13:58:00,
2013-06-20 10:03:00,70.1,65.7,30.19,SSE,148,2.0,7.0,86,0.00,,,0.00,650,HR-IXPWINDi_r2_v1.2.,2013-06-20 14:03:00,
2013-06-20 10:08:00,70.5,65.4,30.19,South,172,4.0,7.0,84,0.00,,,0.00,684,HR-IXPWINDi_r2_v1.2.,2013-06-20 14:08:00,
2013-06-20 10:13:00,70.1,65.3,30.19,SE,145,1.0,7.0,85,0.00,,,0.00,663,HR-IXPWINDi_r2_v1.2.,2013-06-20 14:13:00,
2013-06-20 10:18:00,71.2,66.1,30.19,SE,143,2.0,6.0,84,0.00,,,0.00,329,HR-IXPWINDi_r2_v1.2.,2013-06-20 14:18:00,
2013-06-20 10:23:00,70.8,65.0,30.19,SE,146,5.0,5.0,82,0.00,,,0.00,232,HR-IXPWINDi_r2_v1.2.,2013-06-20 14:23:00,
2013-06-20 10:29:00,71.0,65.2,30.19,SE,144,1.0,6.0,82,0.00,,,0.00,800,HR-IXPWINDi_r2_v1.2.,2013-06-20 14:29:00,
2013-06-20 10:34:00,71.4,64.8,30.19,SE,139,2.0,6.0,80,0.00,,,0.00,287,HR-IXPWINDi_r2_v1.2.,2013-06-20 14:34:00,
2013-06-20 10:39:00,71.6,64.7,30.19,SE,141,2.0,5.0,79,0.00,,,0.00,870,HR-IXPWINDi_r2_v1.2.,2013-06-20 14:39:00,
2013-06-20 10:44:00,72.3,65.7,30.19,SE,133,4.0,6.0,80,0.00,,,0.00,812,HR-IXPWINDi_r2_v1.2.,2013-06-20 14:44:00,
2013-06-20 10:49:00,72.2,65.6,30.19,SE,133,0.0,6.0,80,0.00,,,0.00,278,HR-IXPWINDi_r2_v1.2.,2013-06-20 14:49:00,
2013-06-20 10:54:00,72.0,65.1,30.19,SE,143,0.0,5.0,79,0.00,,,0.00,882,HR-IXPWINDi_r2_v1.2.,2013-06-20 14:54:00,
2013-06-20 10:59:00,72.5,65.2,30.19,SE,143,0.0,5.0,78,0.00,,,0.00,392,HR-IXPWINDi_r2_v1.2.,2013-06-20 14:59:00,
2013-06-20 11:05:00,73.7,66.4,30.19,SE,143,1.0,5.0,78,0.00,,,0.00,902,HR-IXPWINDi_r2_v1.2.,2013-06-20 15:05:00,
2013-06-20 11:10:00,74.8,66.7,30.20,East,84,1.0,2.0,76,0.00,,,0.00,984,HR-IXPWINDi_r2_v1.2.,2013-06-20 15:10:00,
2013-06-20 11:15:00,75.3,66.4,30.19,North,360,3.0,4.0,74,0.00,,,0.00,863,HR-IXPWINDi_r2_v1.2.,2013-06-20 15:15:00,
2013-06-20 11:20:00,75.3,66.4,30.19,North,360,0.0,4.0,74,0.00,,,0.00,417,HR-IXPWINDi_r2_v1.2.,2013-06-20 15:20:00,
2013-06-20 11:25:00,73.9,65.0,30.20,SE,138,0.0,6.0,74,0.00,,,0.00,380,HR-IXPWINDi_r2_v1.2.,2013-06-20 15:25:00,
2013-06-20 11:30:00,75.1,65.4,30.20,SE,138,0.0,6.0,72,0.00,,,0.00,396,HR-IXPWINDi_r2_v1.2.,2013-06-20 15:30:00,
2013-06-20 11:36:00,74.8,64.7,30.19,SSE,148,2.0,4.0,71,0.00,,,0.00,969,HR-IXPWINDi_r2_v1.2.,2013-06-20 15:36:00,
2013-06-20 11:41:00,74.2,64.5,30.19,South,188,2.0,5.0,72,0.00,,,0.00,805,HR-IXPWINDi_r2_v1.2.,2013-06-20 15:41:00,
2013-06-20 11:46:00,75.0,64.5,30.19,South,188,0.0,5.0,70,0.00,,,0.00,476,HR-IXPWINDi_r2_v1.2.,2013-06-20 15:46:00,
2013-06-20 11:51:00,74.5,65.2,30.19,SSE,148,6.0,6.0,73,0.00,,,0.00,916,HR-IXPWINDi_r2_v1.2.,2013-06-20 15:51:00,
2013-06-20 11:56:00,75.7,65.6,30.19,SE,145,0.0,6.0,71,0.00,,,0.00,350,HR-IXPWINDi_r2_v1.2.,2013-06-20 15:56:00,
2013-06-20 12:01:00,76.5,65.5,30.19,SSE,157,2.0,6.0,69,0.00,,,0.00,408,HR-IXPWINDi_r2_v1.2.,2013-06-20 16:01:00,
2013-06-20 12:06:00,75.2,65.1,30.19,SSE,157,4.0,4.0,71,0.00,,,0.00,341,HR-IXPWINDi_r2_v1.2.,2013-06-20 16:06:00,
2013-06-20 12:12:00,75.5,65.8,30.19,South,185,3.0,4.0,72,0.00,,,0.00,195,HR-IXPWINDi_r2_v1.2.,2013-06-20 16:12:00,
2013-06-20 12:17:00,74.1,65.6,30.19,South,186,0.0,4.0,75,0.00,,,0.00,179,HR-IXPWINDi_r2_v1.2.,2013-06-20 16:17:00,
2013-06-20 12:22:00,73.8,64.5,30.19,SE,133,1.0,5.0,73,0.00,,,0.00,220,HR-IXPWINDi_r2_v1.2.,2013-06-20 16:22:00,
2013-06-20 12:27:00,73.6,64.4,30.19,SE,138,4.0,7.0,73,0.00,,,0.00,253,HR-IXPWINDi_r2_v1.2.,2013-06-20 16:27:00,
2013-06-20 12:32:00,73.9,65.0,30.19,SE,130,4.0,7.0,74,0.00,,,0.00,316,HR-IXPWINDi_r2_v1.2.,2013-06-20 16:32:00,
2013-06-20 12:38:00,74.4,64.7,30.19,South,173,1.0,6.0,72,0.00,,,0.00,348,HR-IXPWINDi_r2_v1.2.,2013-06-20 16:38:00,
2013-06-20 12:43:00,75.2,64.3,30.19,SE,143,6.0,9.0,69,0.00,,,0.00,1025,HR-IXPWINDi_r2_v1.2.,2013-06-20 16:43:00,
2013-06-20 12:48:00,75.8,64.8,30.19,SE,144,6.0,11.0,69,0.00,,,0.00,1011,HR-IXPWINDi_r2_v1.2.,2013-06-20 16:48:00,
2013-06-20 12:53:00,75.7,63.9,30.19,SSE,159,5.0,11.0,67,0.00,,,0.00,427,HR-IXPWINDi_r2_v1.2.,2013-06-20 16:53:00,
2013-06-20 12:58:00,76.2,64.0,30.19,ESE,123,6.0,12.0,66,0.00,,,0.00,1081,HR-IXPWINDi_r2_v1.2.,2013-06-20 16:58:00,
2013-06-20 13:04:00,76.5,65.1,30.19,East,101,2.0,12.0,68,0.00,,,0.00,782,HR-IXPWINDi_r2_v1.2.,2013-06-20 17:04:00,
2013-06-20 13:09:00,76.3,64.5,30.19,SE,125,6.0,11.0,67,0.00,,,0.00,316,HR-IXPWINDi_r2_v1.2.,2013-06-20 17:09:00,
2013-06-20 13:14:00,75.9,64.9,30.19,ESE,111,0.0,11.0,69,0.00,,,0.00,350,HR-IXPWINDi_r2_v1.2.,2013-06-20 17:14:00,
2013-06-20 13:19:00,76.4,65.4,30.19,ESE,117,9.0,14.0,69,0.00,,,0.00,462,HR-IXPWINDi_r2_v1.2.,2013-06-20 17:19:00,
2013-06-20 13:24:00,75.6,65.1,30.19,SSW,192,6.0,15.0,70,0.00,,,0.00,336,HR-IXPWINDi_r2_v1.2.,2013-06-20 17:24:00,
2013-06-20 13:29:00,75.9,64.1,30.19,SE,143,2.0,15.0,67,0.00,,,0.00,1072,HR-IXPWINDi_r2_v1.2.,2013-06-20 17:29:00,
2013-06-20 13:35:00,76.6,64.8,30.18,SSW,196,6.0,14.0,67,0.00,,,0.00,984,HR-IXPWINDi_r2_v1.2.,2013-06-20 17:35:00,
2013-06-20 13:40:00,76.5,64.7,30.19,ESE,117,9.0,15.0,67,0.00,,,0.00,1041,HR-IXPWINDi_r2_v1.2.,2013-06-20 17:40:00,
2013-06-20 13:45:00,77.3,65.0,30.18,East,86,3.0,15.0,66,0.00,,,0.00,1053,HR-IXPWINDi_r2_v1.2.,2013-06-20 17:45:00,
2013-06-20 13:50:00,76.9,65.1,30.18,South,178,0.0,12.0,67,0.00,,,0.00,1002,HR-IXPWINDi_r2_v1.2.,2013-06-20 17:50:00,
2013-06-20 13:55:00,77.2,64.0,30.18,SSE,163,5.0,15.0,64,0.00,,,0.00,1002,HR-IXPWINDi_r2_v1.2.,2013-06-20 17:55:00,
2013-06-20 14:01:00,77.4,64.2,30.18,SSE,163,10.0,15.0,64,0.00,,,0.00,1060,HR-IXPWINDi_r2_v1.2.,2013-06-20 18:01:00,
2013-06-20 14:06:00,78.0,64.8,30.17,SSE,149,2.0,14.0,64,0.00,,,0.00,1097,HR-IXPWINDi_r2_v1.2.,2013-06-20 18:06:00,
2013-06-20 14:11:00,78.5,64.3,30.18,South,170,5.0,15.0,62,0.00,,,0.00,1095,HR-IXPWINDi_r2_v1.2.,2013-06-20 18:11:00,
2013-06-20 14:16:00,78.4,64.7,30.18,SSE,152,6.0,15.0,63,0.00,,,0.00,1023,HR-IXPWINDi_r2_v1.2.,2013-06-20 18:16:00,
2013-06-20 14:22:00,77.8,64.6,30.18,ESE,110,4.0,11.0,64,0.00,,,0.00,329,HR-IXPWINDi_r2_v1.2.,2013-06-20 18:22:00,
2013-06-20 14:27:00,79.3,65.1,30.17,ENE,77,0.0,11.0,62,0.00,,,0.00,933,HR-IXPWINDi_r2_v1.2.,2013-06-20 18:27:00,
2013-06-20 14:32:00,80.0,64.8,30.17,East,98,2.0,8.0,60,0.00,,,0.00,951,HR-IXPWINDi_r2_v1.2.,2013-06-20 18:32:00,
2013-06-20 14:37:00,80.5,64.8,30.17,NE,47,4.0,8.0,59,0.00,,,0.00,926,HR-IXPWINDi_r2_v1.2.,2013-06-20 18:37:00,
2013-06-20 14:42:00,79.6,64.9,30.17,ESE,115,7.0,8.0,61,0.00,,,0.00,911,HR-IXPWINDi_r2_v1.2.,2013-06-20 18:42:00,
2013-06-20 14:47:00,78.5,64.3,30.17,SE,126,6.0,9.0,62,0.00,,,0.00,896,HR-IXPWINDi_r2_v1.2.,2013-06-20 18:47:00,
2013-06-20 14:53:00,78.3,63.2,30.17,SSE,157,6.0,13.0,60,0.00,,,0.00,886,HR-IXPWINDi_r2_v1.2.,2013-06-20 18:53:00,
2013-06-20 14:58:00,78.3,63.7,30.17,SSE,148,1.0,13.0,61,0.00,,,0.00,867,HR-IXPWINDi_r2_v1.2.,2013-06-20 18:58:00,
2013-06-20 15:03:00,78.1,64.0,30.16,South,169,6.0,14.0,62,0.00,,,0.00,856,HR-IXPWINDi_r2_v1.2.,2013-06-20 19:03:00,
2013-06-20 15:09:00,77.7,63.6,30.16,SSE,163,4.0,17.0,62,0.00,,,0.00,851,HR-IXPWINDi_r2_v1.2.,2013-06-20 19:09:00,
2013-06-20 15:14:00,78.4,65.6,30.16,SE,140,10.0,17.0,65,0.00,,,0.00,846,HR-IXPWINDi_r2_v1.2.,2013-06-20 19:14:00,
2013-06-20 15:19:00,78.7,64.1,30.16,SE,125,8.0,15.0,61,0.00,,,0.00,838,HR-IXPWINDi_r2_v1.2.,2013-06-20 19:19:00,
2013-06-20 15:24:00,78.6,64.4,30.16,East,88,3.0,15.0,62,0.00,,,0.00,485,HR-IXPWINDi_r2_v1.2.,2013-06-20 19:24:00,
2013-06-20 15:30:00,79.6,64.9,30.16,SSE,154,12.0,15.0,61,0.00,,,0.00,819,HR-IXPWINDi_r2_v1.2.,2013-06-20 19:30:00,
2013-06-20 15:35:00,78.7,64.1,30.16,SSE,157,8.0,13.0,61,0.00,,,0.00,807,HR-IXPWINDi_r2_v1.2.,2013-06-20 19:35:00,
2013-06-20 15:40:00,78.9,63.8,30.16,ESE,117,7.0,15.0,60,0.00,,,0.00,798,HR-IXPWINDi_r2_v1.2.,2013-06-20 19:40:00,
2013-06-20 15:45:00,78.7,64.5,30.16,South,184,6.0,15.0,62,0.00,,,0.00,788,HR-IXPWINDi_r2_v1.2.,2013-06-20 19:45:00,
2013-06-20 15:50:00,77.7,63.6,30.15,SSE,149,12.0,18.0,62,0.00,,,0.00,775,HR-IXPWINDi_r2_v1.2.,2013-06-20 19:50:00,
2013-06-20 15:56:00,77.8,64.1,30.15,ESE,115,6.0,18.0,63,0.00,,,0.00,766,HR-IXPWINDi_r2_v1.2.,2013-06-20 19:56:00,
2013-06-20 16:01:00,78.3,64.2,30.15,ESE,121,2.0,17.0,62,0.00,,,0.00,749,HR-IXPWINDi_r2_v1.2.,2013-06-20 20:01:00,
2013-06-20 16:06:00,79.0,64.8,30.15,SSE,162,2.0,14.0,62,0.00,,,0.00,737,HR-IXPWINDi_r2_v1.2.,2013-06-20 20:06:00,
2013-06-20 16:11:00,79.0,63.9,30.15,SSE,153,1.0,11.0,60,0.00,,,0.00,729,HR-IXPWINDi_r2_v1.2.,2013-06-20 20:11:00,
2013-06-20 16:17:00,79.2,64.1,30.15,SE,146,0.0,11.0,60,0.00,,,0.00,722,HR-IXPWINDi_r2_v1.2.,2013-06-20 20:17:00,
2013-06-20 16:22:00,79.7,64.5,30.15,SE,140,2.0,11.0,60,0.00,,,0.00,707,HR-IXPWINDi_r2_v1.2.,2013-06-20 20:22:00,
2013-06-20 16:27:00,79.0,63.9,30.14,SSW,192,7.0,10.0,60,0.00,,,0.00,684,HR-IXPWINDi_r2_v1.2.,2013-06-20 20:27:00,
2013-06-20 16:32:00,78.7,65.0,30.15,SSE,147,7.0,10.0,63,0.00,,,0.00,682,HR-IXPWINDi_r2_v1.2.,2013-06-20 20:32:00,
2013-06-20 16:38:00,78.4,64.7,30.15,South,180,14.0,19.0,63,0.00,,,0.00,680,HR-IXPWINDi_r2_v1.2.,2013-06-20 20:38:00,
2013-06-20 16:43:00,78.0,63.9,30.15,ESE,115,5.0,19.0,62,0.00,,,0.00,666,HR-IXPWINDi_r2_v1.2.,2013-06-20 20:43:00,
2013-06-20 16:48:00,78.6,64.4,30.15,SE,126,5.0,17.0,62,0.00,,,0.00,649,HR-IXPWINDi_r2_v1.2.,2013-06-20 20:48:00,
2013-06-20 16:53:00,78.3,63.2,30.15,SE,139,1.0,12.0,60,0.00,,,0.00,633,HR-IXPWINDi_r2_v1.2.,2013-06-20 20:53:00,
2013-06-20 16:58:00,77.6,64.0,30.15,SE,127,4.0,17.0,63,0.00,,,0.00,617,HR-IXPWINDi_r2_v1.2.,2013-06-20 20:58:00,
2013-06-20 17:03:00,77.7,64.0,30.15,SSE,152,1.0,17.0,63,0.00,,,0.00,622,HR-IXPWINDi_r2_v1.2.,2013-06-20 21:03:00,
2013-06-20 17:08:00,77.3,64.1,30.15,West,260,2.0,13.0,64,0.00,,,0.00,621,HR-IXPWINDi_r2_v1.2.,2013-06-20 21:08:00,
2013-06-20 17:14:00,77.5,63.9,30.15,ESE,112,1.0,13.0,63,0.00,,,0.00,480,HR-IXPWINDi_r2_v1.2.,2013-06-20 21:14:00,
2013-06-20 17:19:00,77.6,63.5,30.15,SE,141,5.0,13.0,62,0.00,,,0.00,185,HR-IXPWINDi_r2_v1.2.,2013-06-20 21:19:00,
2013-06-20 17:24:00,77.7,63.1,30.15,SE,132,5.0,9.0,61,0.00,,,0.00,353,HR-IXPWINDi_r2_v1.2.,2013-06-20 21:24:00,
2013-06-20 17:29:00,77.3,63.7,30.15,SE,124,8.0,9.0,63,0.00,,,0.00,223,HR-IXPWINDi_r2_v1.2.,2013-06-20 21:29:00,
2013-06-20 17:35:00,77.5,62.9,30.15,ESE,121,7.0,9.0,61,0.00,,,0.00,195,HR-IXPWINDi_r2_v1.2.,2013-06-20 21:35:00,
2013-06-20 17:40:00,76.7,62.6,30.15,North,355,4.0,13.0,62,0.00,,,0.00,176,HR-IXPWINDi_r2_v1.2.,2013-06-20 21:40:00,
2013-06-20 17:45:00,76.7,62.6,30.15,ENE,74,6.0,13.0,62,0.00,,,0.00,185,HR-IXPWINDi_r2_v1.2.,2013-06-20 21:45:00,
2013-06-20 17:50:00,76.6,62.6,30.15,North,355,1.0,12.0,62,0.00,,,0.00,274,HR-IXPWINDi_r2_v1.2.,2013-06-20 21:50:00,
2013-06-20 17:55:00,76.6,63.0,30.15,East,90,4.0,12.0,63,0.00,,,0.00,118,HR-IXPWINDi_r2_v1.2.,2013-06-20 21:55:00,
2013-06-20 18:00:00,76.2,62.6,30.15,SE,139,6.0,9.0,63,0.00,,,0.00,125,HR-IXPWINDi_r2_v1.2.,2013-06-20 22:00:00,
2013-06-20 18:05:00,75.7,62.6,30.15,South,188,3.0,12.0,64,0.00,,,0.00,95,HR-IXPWINDi_r2_v1.2.,2013-06-20 22:05:00,
2013-06-20 18:10:00,75.6,62.5,30.15,ESE,110,0.0,12.0,64,0.00,,,0.00,88,HR-IXPWINDi_r2_v1.2.,2013-06-20 22:10:00,
2013-06-20 18:16:00,75.6,62.1,30.15,ESE,108,4.0,7.0,63,0.00,,,0.00,93,HR-IXPWINDi_r2_v1.2.,2013-06-20 22:16:00,
2013-06-20 18:21:00,75.6,62.5,30.15,SSE,162,5.0,7.0,64,0.00,,,0.00,95,HR-IXPWINDi_r2_v1.2.,2013-06-20 22:21:00,
2013-06-20 18:26:00,75.4,64.0,30.15,SSE,162,0.0,6.0,68,0.00,,,0.00,109,HR-IXPWINDi_r2_v1.2.,2013-06-20 22:26:00,
2013-06-20 18:31:00,75.5,63.3,30.15,SSE,167,2.0,5.0,66,0.00,,,0.00,127,HR-IXPWINDi_r2_v1.2.,2013-06-20 22:31:00,
2013-06-20 18:37:00,75.6,63.4,30.15,SE,126,1.0,7.0,66,0.00,,,0.00,137,HR-IXPWINDi_r2_v1.2.,2013-06-20 22:37:00,
2013-06-20 18:42:00,75.5,63.7,30.15,SE,140,1.0,7.0,67,0.00,,,0.00,137,HR-IXPWINDi_r2_v1.2.,2013-06-20 22:42:00,
2013-06-20 18:47:00,75.5,64.1,30.15,SE,140,2.0,5.0,68,0.00,,,0.00,111,HR-IXPWINDi_r2_v1.2.,2013-06-20 22:47:00,
2013-06-20 18:52:00,75.6,62.5,30.16,NE,50,4.0,7.0,64,0.00,,,0.00,77,HR-IXPWINDi_r2_v1.2.,2013-06-20 22:52:00,
2013-06-20 18:57:00,75.5,62.9,30.16,SE,125,6.0,9.0,65,0.00,,,0.00,69,HR-IXPWINDi_r2_v1.2.,2013-06-20 22:57:00,
2013-06-20 19:02:00,75.0,61.9,30.16,ESE,119,4.0,9.0,64,0.00,,,0.00,63,HR-IXPWINDi_r2_v1.2.,2013-06-20 23:02:00,
2013-06-20 19:07:00,74.6,62.0,30.16,SSE,161,4.0,10.0,65,0.00,,,0.00,58,HR-IXPWINDi_r2_v1.2.,2013-06-20 23:07:00,
2013-06-20 19:13:00,74.4,62.2,30.16,ESE,121,5.0,11.0,66,0.00,,,0.00,51,HR-IXPWINDi_r2_v1.2.,2013-06-20 23:13:00,
2013-06-20 19:18:00,74.4,62.2,30.16,ESE,121,2.0,11.0,66,0.00,,,0.00,44,HR-IXPWINDi_r2_v1.2.,2013-06-20 23:18:00,
2013-06-20 19:23:00,74.2,61.6,30.16,ESE,110,4.0,5.0,65,0.00,,,0.00,42,HR-IXPWINDi_r2_v1.2.,2013-06-20 23:23:00,
2013-06-20 19:28:00,74.2,62.1,30.16,SE,126,2.0,6.0,66,0.00,,,0.00,46,HR-IXPWINDi_r2_v1.2.,2013-06-20 23:28:00,
2013-06-20 19:33:00,74.0,62.3,30.16,SE,138,0.0,6.0,67,0.00,,,0.00,46,HR-IXPWINDi_r2_v1.2.,2013-06-20 23:33:00,
2013-06-20 19:39:00,73.9,62.2,30.16,SE,130,0.0,6.0,67,0.00,,,0.00,51,HR-IXPWINDi_r2_v1.2.,2013-06-20 23:39:00,
2013-06-20 19:44:00,73.9,62.2,30.16,SE,128,0.0,6.0,67,0.00,,,0.00,49,HR-IXPWINDi_r2_v1.2.,2013-06-20 23:44:00,
2013-06-20 19:49:00,73.7,62.8,30.16,SE,124,2.0,2.0,69,0.00,,,0.00,47,HR-IXPWINDi_r2_v1.2.,2013-06-20 23:49:00,
2013-06-20 19:54:00,73.4,63.4,30.16,SSE,149,2.0,7.0,71,0.00,,,0.00,42,HR-IXPWINDi_r2_v1.2.,2013-06-20 23:54:00,
2013-06-20 19:59:00,73.3,63.3,30.16,ESE,121,0.0,7.0,71,0.00,,,0.00,39,HR-IXPWINDi_r2_v1.2.,2013-06-20 23:59:00,
2013-06-20 20:04:00,73.2,63.6,30.16,SE,126,1.0,6.0,72,0.00,,,0.00,33,HR-IXPWINDi_r2_v1.2.,2013-06-21 00:04:00,
2013-06-20 20:09:00,73.1,63.5,30.16,ESE,123,4.0,8.0,72,0.00,,,0.00,26,HR-IXPWINDi_r2_v1.2.,2013-06-21 00:09:00,
2013-06-20 20:14:00,72.9,63.7,30.16,ESE,103,0.0,8.0,73,0.00,,,0.00,21,HR-IXPWINDi_r2_v1.2.,2013-06-21 00:14:00,
2013-06-20 20:19:00,72.3,63.5,30.16,SSE,155,4.0,7.0,74,0.00,,,0.00,16,HR-IXPWINDi_r2_v1.2.,2013-06-21 00:19:00,
2013-06-20 20:25:00,72.3,63.5,30.17,East,93,0.0,7.0,74,0.00,,,0.00,12,HR-IXPWINDi_r2_v1.2.,2013-06-21 00:25:00,
2013-06-20 20:30:00,72.3,63.5,30.17,ESE,112,0.0,7.0,74,0.00,,,0.00,11,HR-IXPWINDi_r2_v1.2.,2013-06-21 00:30:00,
2013-06-20 20:35:00,72.1,63.7,30.17,East,89,5.0,7.0,75,0.00,,,0.00,7,HR-IXPWINDi_r2_v1.2.,2013-06-21 00:35:00,
2013-06-20 20:40:00,72.1,63.7,30.17,ESE,102,4.0,8.0,75,0.00,,,0.00,0,HR-IXPWINDi_r2_v1.2.,2013-06-21 00:40:00,
2013-06-20 20:46:00,71.9,63.5,30.17,ESE,111,2.0,8.0,75,0.00,,,0.00,0,HR-IXPWINDi_r2_v1.2.,2013-06-21 00:46:00,
2013-06-20 20:51:00,71.9,63.5,30.17,ESE,104,1.0,8.0,75,0.00,,,0.00,0,HR-IXPWINDi_r2_v1.2.,2013-06-21 00:51:00,
2013-06-20 20:56:00,71.5,63.5,30.18,SSE,159,5.0,8.0,76,0.00,,,0.00,0,HR-IXPWINDi_r2_v1.2.,2013-06-21 00:56:00,
2013-06-20 21:01:00,71.6,63.6,30.18,NNW,341,5.0,6.0,76,0.00,,,0.00,0,HR-IXPWINDi_r2_v1.2.,2013-06-21 01:01:00,
2013-06-20 21:07:00,71.4,63.4,30.18,NE,55,1.0,6.0,76,0.00,,,0.00,0,HR-IXPWINDi_r2_v1.2.,2013-06-21 01:07:00,
2013-06-20 21:12:00,71.1,63.8,30.18,NNE,18,3.0,6.0,78,0.00,,,0.00,0,HR-IXPWINDi_r2_v1.2.,2013-06-21 01:12:00,
2013-06-20 21:17:00,71.1,63.8,30.19,NNE,23,2.0,6.0,78,0.00,,,0.00,0,HR-IXPWINDi_r2_v1.2.,2013-06-21 01:17:00,
2013-06-20 21:22:00,70.5,64.0,30.19,NNE,23,0.0,4.0,80,0.00,,,0.00,0,HR-IXPWINDi_r2_v1.2.,2013-06-21 01:22:00,
2013-06-20 21:27:00,69.5,63.7,30.19,NNE,23,0.0,2.0,82,0.00,,,0.00,0,HR-IXPWINDi_r2_v1.2.,2013-06-21 01:27:00,
2013-06-20 21:33:00,69.7,63.9,30.19,NNE,23,0.0,2.0,82,0.00,,,0.00,0,HR-IXPWINDi_r2_v1.2.,2013-06-21 01:33:00,
2013-06-20 21:38:00,69.7,63.9,30.19,NNE,23,0.0,2.0,82,0.00,,,0.00,0,HR-IXPWINDi_r2_v1.2.,2013-06-21 01:38:00,
2013-06-20 21:43:00,68.6,63.8,30.18,NNE,23,1.0,2.0,85,0.00,,,0.00,0,HR-IXPWINDi_r2_v1.2.,2013-06-21 01:43:00,
2013-06-20 21:48:00,68.2,63.8,30.19,NNE,19,0.0,3.0,86,0.00,,,0.00,0,HR-IXPWINDi_r2_v1.2.,2013-06-21 01:48:00,
2013-06-20 21:54:00,67.7,63.6,30.19,NE,44,0.0,3.0,87,0.00,,,0.00,0,HR-IXPWINDi_r2_v1.2.,2013-06-21 01:54:00,
2013-06-20 21:59:00,67.6,63.5,30.19,NE,44,0.0,3.0,87,0.00,,,0.00,0,HR-IXPWINDi_r2_v1.2.,2013-06-21 01:59:00,
2013-06-20 22:04:00,67.4,63.3,30.19,NE,44,0.0,1.0,87,0.00,,,0.00,0,HR-IXPWINDi_r2_v1.2.,2013-06-21 02:04:00,
2013-06-20 22:09:00,67.0,63.3,30.19,NE,44,0.0,2.0,88,0.00,,,0.00,0,HR-IXPWINDi_r2_v1.2.,2013-06-21 02:09:00,
2013-06-20 22:15:00,66.9,63.2,30.19,NE,44,0.0,2.0,88,0.00,,,0.00,0,HR-IXPWINDi_r2_v1.2.,2013-06-21 02:15:00,
2013-06-20 22:20:00,66.4,63.0,30.20,NE,44,0.0,2.0,89,0.00,,,0.00,0,HR-IXPWINDi_r2_v1.2.,2013-06-21 02:20:00,
2013-06-20 22:25:00,66.1,63.0,30.20,NE,44,0.0,2.0,90,0.00,,,0.00,0,HR-IXPWINDi_r2_v1.2.,2013-06-21 02:25:00,
2013-06-20 22:30:00,66.4,63.3,30.20,NE,44,0.0,1.0,90,0.00,,,0.00,0,HR-IXPWINDi_r2_v1.2.,2013-06-21 02:30:00,
2013-06-20 22:35:00,66.1,63.0,30.20,ENE,59,2.0,3.0,90,0.00,,,0.00,0,HR-IXPWINDi_r2_v1.2.,2013-06-21 02:35:00,
2013-06-20 22:40:00,65.6,62.8,30.21,ENE,59,0.0,3.0,91,0.00,,,0.00,0,HR-IXPWINDi_r2_v1.2.,2013-06-21 02:40:00,
2013-06-20 22:46:00,65.7,62.9,30.21,ENE,59,0.0,2.0,91,0.00,,,0.00,0,HR-IXPWINDi_r2_v1.2.,2013-06-21 02:46:00,
2013-06-20 22:51:00,66.1,63.3,30.21,ENE,59,0.0,2.0,91,0.00,,,0.00,0,HR-IXPWINDi_r2_v1.2.,2013-06-21 02:51:00,
2013-06-20 22:56:00,66.1,63.0,30.21,ENE,59,0.0,2.0,90,0.00,,,0.00,0,HR-IXPWINDi_r2_v1.2.,2013-06-21 02:56:00,
2013-06-20 23:02:00,66.1,63.0,30.21,ENE,59,0.0,1.0,90,0.00,,,0.00,0,HR-IXPWINDi_r2_v1.2.,2013-06-21 03:02:00,
2013-06-20 23:07:00,66.0,63.2,30.21,ENE,59,0.0,1.0,91,0.00,,,0.00,0,HR-IXPWINDi_r2_v1.2.,2013-06-21 03:07:00,
2013-06-20 23:12:00,65.7,62.9,30.21,ENE,59,0.0,1.0,91,0.00,,,0.00,0,HR-IXPWINDi_r2_v1.2.,2013-06-21 03:12:00,
2013-06-20 23:17:00,65.9,63.1,30.21,ENE,59,0.0,1.0,91,0.00,,,0.00,0,HR-IXPWINDi_r2_v1.2.,2013-06-21 03:17:00,
2013-06-20 23:22:00,65.6,62.8,30.21,ENE,59,0.0,1.0,91,0.00,,,0.00,0,HR-IXPWINDi_r2_v1.2.,2013-06-21 03:22:00,
2013-06-20 23:28:00,65.6,63.1,30.21,ENE,59,0.0,0.0,92,0.00,,,0.00,0,HR-IXPWINDi_r2_v1.2.,2013-06-21 03:28:00,
2013-06-20 23:33:00,65.2,62.7,30.21,ENE,59,0.0,0.0,92,0.00,,,0.00,0,HR-IXPWINDi_r2_v1.2.,2013-06-21 03:33:00,
2013-06-20 23:38:00,65.3,62.8,30.22,ENE,59,0.0,0.0,92,0.00,,,0.00,0,HR-IXPWINDi_r2_v1.2.,2013-06-21 03:38:00,
2013-06-20 23:43:00,65.4,62.9,30.21,ENE,59,0.0,0.0,92,0.00,,,0.00,0,HR-IXPWINDi_r2_v1.2.,2013-06-21 03:43:00,
2013-06-20 23:48:00,65.1,62.7,30.21,ENE,59,0.0,1.0,92,0.00,,,0.00,0,HR-IXPWINDi_r2_v1.2.,2013-06-21 03:48:00,
2013-06-20 23:54:00,64.9,62.5,30.21,ENE,59,0.0,1.0,92,0.00,,,0.00,0,HR-IXPWINDi_r2_v1.2.,2013-06-21 03:54:00,
2013-06-20 23:59:00,64.8,62.4,30.22,ENE,59,0.0,1.0,92,0.00,,,0.00,0,HR-IXPWINDi_r2_v1.2.,2013-06-21 03:59:00,